createdAt,value
2022-11-29T06:16:29.986Z,315.00
2022-11-29T06:26:29.995Z,315.00
2022-11-29T06:36:29.845Z,315.00
2022-11-29T06:46:30.076Z,315.00
2022-11-29T06:56:30.087Z,315.00
2022-11-29T07:06:29.951Z,295.09
2022-11-29T07:16:30.056Z,225.00
2022-11-29T07:26:29.967Z,62.64
2022-11-29T07:36:29.955Z,90.00
2022-11-29T07:46:30.067Z,90.00
2022-11-29T07:56:30.054Z,90.00
2022-11-29T08:06:29.940Z,90.00
2022-11-29T08:16:30.139Z,90.00
2022-11-29T08:26:31.851Z,90.00
2022-11-29T08:36:30.029Z,90.00
2022-11-29T08:46:30.104Z,90.00
2022-11-29T08:57:16.668Z,90.00
2022-11-29T09:06:30.110Z,92.67
2022-11-29T09:16:30.105Z,109.86
2022-11-29T09:26:30.160Z,90.00
2022-11-29T09:36:30.102Z,90.00
2022-11-29T09:46:29.959Z,90.00
2022-11-29T09:56:30.076Z,90.00
2022-11-29T10:06:30.111Z,90.70
2022-11-29T10:16:30.129Z,90.04
2022-11-29T10:26:35.003Z,92.44
2022-11-29T10:36:30.198Z,109.22
2022-11-29T10:46:29.980Z,135.00
2022-11-29T10:56:30.110Z,70.52
2022-11-29T11:06:30.175Z,45.00
2022-11-29T11:16:34.278Z,60.21
2022-11-29T11:26:30.220Z,90.00
2022-11-29T11:36:30.069Z,90.00
2022-11-29T11:46:30.220Z,90.00
2022-11-29T11:56:30.089Z,90.00
2022-11-29T12:06:29.953Z,112.49
2022-11-29T12:16:30.042Z,99.87
2022-11-29T12:26:55.929Z,90.00
2022-11-29T12:36:30.049Z,90.00
2022-11-29T12:46:30.167Z,90.00
2022-11-29T12:56:30.030Z,90.77
2022-11-29T13:06:29.939Z,94.05
2022-11-29T13:26:29.973Z,90.00
2022-11-29T13:36:30.081Z,90.00
2022-11-29T13:46:29.952Z,101.32
2022-11-29T13:56:30.061Z,95.16
2022-11-29T14:06:30.044Z,94.67
2022-11-29T14:16:30.027Z,92.90
2022-11-29T14:26:30.056Z,91.01
2022-11-29T14:36:30.017Z,90.11
2022-11-29T14:46:30.226Z,90.00
2022-11-29T14:56:29.987Z,90.00
2022-11-29T15:06:30.107Z,90.00
2022-11-29T15:16:30.210Z,90.00
2022-11-29T15:26:30.028Z,90.00
2022-11-29T15:36:30.022Z,90.00
2022-11-29T15:46:29.955Z,90.00
2022-11-29T15:56:30.136Z,90.00
2022-11-29T16:06:30.195Z,90.41
2022-11-29T16:16:30.236Z,90.00
2022-11-29T16:26:30.221Z,90.39
2022-11-29T16:36:30.185Z,90.00
2022-11-29T16:46:30.018Z,90.00
2022-11-29T16:56:30.001Z,90.00
2022-11-29T17:06:30.188Z,90.00
2022-11-29T17:16:30.262Z,90.00
2022-11-29T17:26:30.338Z,90.00
2022-11-29T17:36:30.111Z,90.00
2022-11-29T17:46:30.234Z,90.00
2022-11-29T17:56:30.304Z,90.00
2022-11-29T18:06:30.162Z,90.00
2022-11-29T18:16:30.404Z,90.00
2022-11-29T18:26:30.250Z,90.00
2022-11-29T18:36:30.339Z,90.00
2022-11-29T18:46:30.544Z,90.00
2022-11-29T18:56:30.628Z,90.00
2022-11-29T19:06:35.612Z,90.00
2022-11-29T19:16:30.796Z,90.00
